Terminal Aerodrome Forecast
Issued by NWS Cleveland, OH

Home | Current Version | Previous Version | Graphics & Text | Print | Product List | Glossary On
Versions: 1 2 3 4 5 6 7 8 9 10 11 12 13 14 15 16
000
FTUS41 KCLE 182351
TAFYNG
TAF
KYNG 182351Z 1900/1924 16008KT P6SM BKN250
     FM191300 16009KT P6SM -RA SCT015 OVC025
     FM191800 20010KT 2SM -RA OVC003 WS020/22040KT
     FM192100 19010G18KT P6SM OVC008=

USA.gov is the U.S. government's official web portal to all federal, state and local government web resources and services.